Time;durP1;ratioP1;P1;durP2;ratioP2;P2;SDS_P1;SDS_P2;PMS_P1;PMS_P2;Temp;Humidity;BMP_temperature;BMP_pressure;BME280_temperature;BME280_humidity;BME280_pressure;Samples;Min_cycle;Max_cycle;Signal;HPM_P1;HPM_P2
2023/01/29 00:01:31;;;;;;;;;;;-1.50;99.90;;;;;;5065973;28;19944;-90
2023/01/29 00:03:58;;;;;;;;;;;-1.60;99.90;;;;;;5059697;28;19952;-90
2023/01/29 00:06:26;;;;;;;;;;;-1.60;99.90;;;;;;5049863;28;19981;-90
2023/01/29 00:08:52;;;;;;;;;;;-1.50;99.90;;;;;;5048289;28;20224;-89
2023/01/29 00:11:20;;;;;;;;;;;-1.70;99.90;;;;;;5047264;28;19928;-90
2023/01/29 00:13:47;;;;;;;;;;;-1.70;99.90;;;;;;5059814;28;19980;-89
2023/01/29 00:16:14;;;;;;;;;;;-1.70;99.90;;;;;;5067068;28;19920;-89
2023/01/29 00:18:41;;;;;;;;;;;-1.70;99.90;;;;;;5067279;28;19943;-89
2023/01/29 00:21:11;;;;;;;;;;;-1.70;99.90;;;;;;5066399;28;19951;-89
2023/01/29 00:23:39;;;;;;;;;;;-1.70;99.90;;;;;;5062624;28;19952;-90
2023/01/29 00:26:06;;;;;;;;;;;-1.40;99.90;;;;;;5057613;28;19948;-90
2023/01/29 00:28:32;;;;;;;;;;;-1.60;99.90;;;;;;5066266;28;19944;-90
2023/01/29 00:30:59;;;;;;;;;;;-1.70;99.90;;;;;;5064312;28;19940;-90
2023/01/29 00:33:26;;;;;;;;;;;-0.50;99.90;;;;;;5051548;28;19981;-89
2023/01/29 00:35:53;;;;;;;;;;;-1.70;99.90;;;;;;5058716;28;19921;-90
2023/01/29 00:38:19;;;;;;;;;;;-1.70;99.90;;;;;;5071410;28;19944;-91
2023/01/29 00:46:16;;;;;;;;;;;-1.80;99.90;;;;;;5046526;28;19931;-89
2023/01/29 00:48:42;;;;;;;;;;;-1.80;99.90;;;;;;5053228;28;20220;-89
2023/01/29 00:51:09;;;;;;;;;;;-1.90;99.90;;;;;;5057097;28;19980;-89
2023/01/29 00:53:36;;;;;;;;;;;-1.80;99.90;;;;;;5066014;28;20130;-89
2023/01/29 00:56:04;;;;;;;;;;;-1.80;99.90;;;;;;5065970;28;19927;-88
2023/01/29 00:58:33;;;;;;;;;;;-1.80;99.90;;;;;;5066232;28;19921;-89
2023/01/29 01:01:00;;;;;;;;;;;-1.80;99.90;;;;;;5065638;28;20219;-89
2023/01/29 01:03:26;;;;;;;;;;;-1.80;99.90;;;;;;5065810;28;19951;-89
2023/01/29 01:06:02;;;;;;;;;;;-1.80;99.90;;;;;;5066179;28;19948;-89
2023/01/29 01:11:14;;;;;;;;;;;-1.80;99.90;;;;;;5065685;28;20227;-89
2023/01/29 01:13:41;;;;;;;;;;;-1.80;99.90;;;;;;5065477;28;20109;-89
2023/01/29 01:16:11;;;;;;;;;;;-1.80;99.90;;;;;;5065225;28;19951;-89
2023/01/29 01:18:38;;;;;;;;;;;-1.90;99.90;;;;;;5063489;28;19921;-90
2023/01/29 01:21:05;;;;;;;;;;;-1.80;99.90;;;;;;5055818;28;19921;-89
2023/01/29 01:23:31;;;;;;;;;;;-1.80;99.90;;;;;;5062005;28;19928;-92
2023/01/29 01:25:58;;;;;;;;;;;-1.80;99.90;;;;;;5061938;28;19944;-90
2023/01/29 01:28:27;;;;;;;;;;;-1.80;99.90;;;;;;5060125;28;19921;-90
2023/01/29 01:30:54;;;;;;;;;;;-1.80;99.90;;;;;;5065601;28;19992;-89
2023/01/29 01:33:20;;;;;;;;;;;-1.80;99.90;;;;;;5065152;28;19921;-90
2023/01/29 01:35:47;;;;;;;;;;;-1.80;99.90;;;;;;5064911;28;19944;-90
2023/01/29 01:38:14;;;;;;;;;;;-1.80;99.90;;;;;;5064620;28;19956;-90
2023/01/29 01:40:45;;;;;;;;;;;-1.80;99.90;;;;;;5056703;28;19947;-90
2023/01/29 01:43:12;;;;;;;;;;;-1.60;99.90;;;;;;5065011;28;19921;-89
2023/01/29 01:45:42;;;;;;;;;;;-1.70;99.90;;;;;;5064972;28;19923;-89
2023/01/29 01:48:11;;;;;;;;;;;-1.80;99.90;;;;;;5065566;28;19959;-89
2023/01/29 01:50:41;;;;;;;;;;;-1.80;99.90;;;;;;5065247;28;19925;-89
2023/01/29 01:53:09;;;;;;;;;;;-1.80;99.90;;;;;;5064988;28;19942;-89
2023/01/29 01:55:37;;;;;;;;;;;-1.80;99.90;;;;;;5064872;28;19992;-89
2023/01/29 01:58:08;;;;;;;;;;;-1.80;99.90;;;;;;5064837;28;20217;-89
2023/01/29 02:00:35;;;;;;;;;;;-1.80;99.90;;;;;;5065311;28;19940;-89
2023/01/29 02:11:21;;;;;;;;;;;-1.70;99.90;;;;;;5064939;28;19988;-89
2023/01/29 02:13:52;;;;;;;;;;;-2.10;99.90;;;;;;5064946;28;19925;-90
2023/01/29 02:16:19;;;;;;;;;;;-1.70;99.90;;;;;;5064089;28;19982;-89
2023/01/29 02:18:47;;;;;;;;;;;-1.70;99.90;;;;;;5065386;28;19921;-90
2023/01/29 02:21:23;;;;;;;;;;;-1.70;99.90;;;;;;5064531;28;20181;-90
2023/01/29 02:24:08;;;;;;;;;;;-1.70;99.90;;;;;;5064304;28;19947;-90
2023/01/29 02:26:48;;;;;;;;;;;-1.70;99.90;;;;;;5050507;28;19980;-89
2023/01/29 02:29:26;;;;;;;;;;;-1.70;99.90;;;;;;5060486;28;20007;-89
2023/01/29 02:31:57;;;;;;;;;;;-1.70;99.90;;;;;;5062430;28;20011;-89
2023/01/29 02:34:29;;;;;;;;;;;-0.60;99.90;;;;;;5063241;28;19927;-89
2023/01/29 02:36:59;;;;;;;;;;;-1.70;99.90;;;;;;5058786;28;19992;-89
2023/01/29 02:39:29;;;;;;;;;;;-1.80;99.90;;;;;;5064104;28;19921;-89
2023/01/29 02:41:58;;;;;;;;;;;-1.80;99.90;;;;;;5062138;28;19984;-89
2023/01/29 02:44:30;;;;;;;;;;;-1.80;99.90;;;;;;5063869;28;19988;-89
2023/01/29 02:47:00;;;;;;;;;;;-1.80;99.90;;;;;;5062881;28;19920;-90
2023/01/29 02:49:32;;;;;;;;;;;-1.80;99.90;;;;;;5059593;28;19921;-90
2023/01/29 02:52:00;;;;;;;;;;;-1.80;99.90;;;;;;5063087;28;20007;-92
2023/01/29 02:54:29;;;;;;;;;;;-1.90;99.90;;;;;;5060572;28;19921;-91
2023/01/29 02:56:57;;;;;;;;;;;-1.80;99.90;;;;;;5054449;28;19920;-90
2023/01/29 02:59:26;;;;;;;;;;;-1.80;99.90;;;;;;5064004;28;19920;-90
2023/01/29 03:01:56;;;;;;;;;;;-1.80;99.90;;;;;;5056800;28;19967;-90
2023/01/29 03:04:25;;;;;;;;;;;-1.80;99.90;;;;;;5054961;28;19940;-90
2023/01/29 03:06:54;;;;;;;;;;;-1.80;99.90;;;;;;5063182;28;19944;-88
2023/01/29 03:09:24;;;;;;;;;;;-1.80;99.90;;;;;;5063434;28;19975;-88
2023/01/29 03:11:52;;;;;;;;;;;-1.80;99.90;;;;;;5044899;28;19921;-89
2023/01/29 03:14:23;;;;;;;;;;;-1.80;99.90;;;;;;5043288;28;20209;-89
2023/01/29 03:16:50;;;;;;;;;;;-1.80;99.90;;;;;;5043176;28;19922;-89
2023/01/29 03:19:20;;;;;;;;;;;-1.80;99.90;;;;;;5053419;28;20172;-89
2023/01/29 03:21:54;;;;;;;;;;;-1.90;99.90;;;;;;5056973;28;19984;-88
2023/01/29 03:32:40;;;;;;;;;;;-1.90;99.90;;;;;;5054732;28;20132;-89
2023/01/29 03:35:10;;;;;;;;;;;-2.10;99.90;;;;;;5063062;28;19920;-89
2023/01/29 03:37:39;;;;;;;;;;;-2.20;99.90;;;;;;5066820;28;19921;-89
2023/01/29 03:40:07;;;;;;;;;;;-2.00;99.90;;;;;;5067264;28;19940;-90
2023/01/29 03:42:38;;;;;;;;;;;-2.20;99.90;;;;;;5067288;28;20208;-89
2023/01/29 03:45:09;;;;;;;;;;;-2.20;99.90;;;;;;5067001;28;19921;-89
2023/01/29 03:47:42;;;;;;;;;;;-2.10;99.90;;;;;;5066718;28;20169;-89
2023/01/29 03:50:12;;;;;;;;;;;-2.10;99.90;;;;;;5067034;28;19941;-90
2023/01/29 03:52:42;;;;;;;;;;;-2.10;99.90;;;;;;5066889;28;19944;-89
2023/01/29 03:55:11;;;;;;;;;;;-2.10;99.90;;;;;;5066772;28;19928;-89
2023/01/29 03:57:39;;;;;;;;;;;-2.10;99.90;;;;;;5065922;28;20167;-89
2023/01/29 04:00:09;;;;;;;;;;;-2.10;99.90;;;;;;5066760;28;20142;-89
2023/01/29 04:02:38;;;;;;;;;;;-2.10;99.90;;;;;;5066772;28;19921;-89
2023/01/29 04:05:09;;;;;;;;;;;-1.60;99.90;;;;;;5066924;28;20228;-89
2023/01/29 04:07:38;;;;;;;;;;;-2.10;99.90;;;;;;5066425;28;20220;-89
2023/01/29 04:10:07;;;;;;;;;;;-2.10;99.90;;;;;;5066579;28;19959;-89
2023/01/29 04:12:37;;;;;;;;;;;-2.10;99.90;;;;;;5066471;28;19955;-89
2023/01/29 04:15:05;;;;;;;;;;;-2.10;99.90;;;;;;5066305;28;19928;-89
2023/01/29 04:17:35;;;;;;;;;;;-2.10;99.90;;;;;;5066057;28;20176;-89
2023/01/29 04:20:02;;;;;;;;;;;-2.20;99.90;;;;;;5067428;28;19945;-92
2023/01/29 04:22:40;;;;;;;;;;;-2.20;99.90;;;;;;5051412;28;19921;-91
2023/01/29 04:25:08;;;;;;;;;;;-2.20;99.90;;;;;;5047220;28;19940;-90
2023/01/29 04:27:41;;;;;;;;;;;-2.20;99.90;;;;;;5046011;28;19921;-89
2023/01/29 04:30:14;;;;;;;;;;;-2.20;99.90;;;;;;5046730;28;19984;-89
2023/01/29 04:32:47;;;;;;;;;;;-2.20;99.90;;;;;;5066435;28;19959;-88
2023/01/29 04:35:21;;;;;;;;;;;-2.20;99.90;;;;;;5066248;28;19956;-89
2023/01/29 04:37:55;;;;;;;;;;;-2.30;99.90;;;;;;5066128;28;19967;-89
2023/01/29 04:40:25;;;;;;;;;;;-2.30;99.90;;;;;;5066010;28;19921;-90
2023/01/29 04:42:56;;;;;;;;;;;-2.40;99.90;;;;;;5065557;28;19967;-89
2023/01/29 04:45:27;;;;;;;;;;;-2.30;99.90;;;;;;5065644;28;19929;-89
2023/01/29 04:47:59;;;;;;;;;;;-2.30;99.90;;;;;;5064977;28;19980;-88
2023/01/29 04:50:29;;;;;;;;;;;-2.30;99.90;;;;;;5065862;28;19941;-89
2023/01/29 04:52:58;;;;;;;;;;;-2.30;99.90;;;;;;5065964;28;20254;-88
2023/01/29 04:55:28;;;;;;;;;;;-2.30;99.90;;;;;;5065778;28;19921;-89
2023/01/29 04:57:59;;;;;;;;;;;-2.30;99.90;;;;;;5065631;28;19933;-88
2023/01/29 05:00:27;;;;;;;;;;;-2.10;99.90;;;;;;5065748;28;19928;-89
2023/01/29 05:02:54;;;;;;;;;;;-2.30;99.90;;;;;;5065813;28;19927;-90
2023/01/29 05:05:21;;;;;;;;;;;-2.30;99.90;;;;;;5065334;28;19959;-89
2023/01/29 05:07:48;;;;;;;;;;;-2.20;99.90;;;;;;5065444;28;19924;-89
2023/01/29 05:10:18;;;;;;;;;;;-2.20;99.90;;;;;;5066267;28;19985;-90
2023/01/29 05:12:47;;;;;;;;;;;-2.20;99.90;;;;;;5065360;28;19927;-89
2023/01/29 05:15:16;;;;;;;;;;;-2.20;99.90;;;;;;5065336;28;19951;-90
2023/01/29 05:17:42;;;;;;;;;;;-2.20;99.90;;;;;;5065155;28;19920;-90
2023/01/29 05:20:10;;;;;;;;;;;-2.10;99.90;;;;;;5065094;28;19944;-90
2023/01/29 05:22:38;;;;;;;;;;;-2.10;99.90;;;;;;5065250;28;19940;-89
2023/01/29 05:25:10;;;;;;;;;;;-2.20;99.90;;;;;;5065301;28;19944;-90
2023/01/29 05:30:22;;;;;;;;;;;-2.20;99.90;;;;;;5060223;28;19963;-90
2023/01/29 05:32:49;;;;;;;;;;;-2.20;99.90;;;;;;5045503;28;19984;-89
2023/01/29 05:35:16;;;;;;;;;;;-2.30;99.90;;;;;;5045030;28;19921;-89
2023/01/29 05:37:43;;;;;;;;;;;-2.30;99.90;;;;;;5044792;28;19947;-90
2023/01/29 05:40:10;;;;;;;;;;;-2.40;99.90;;;;;;5045293;28;19921;-89
2023/01/29 05:42:37;;;;;;;;;;;-2.50;99.90;;;;;;5062787;28;19921;-89
2023/01/29 05:45:06;;;;;;;;;;;-2.50;99.90;;;;;;5066875;28;19984;-89
2023/01/29 05:47:32;;;;;;;;;;;-2.50;99.90;;;;;;5075937;28;19909;-91
2023/01/29 05:49:59;;;;;;;;;;;-2.50;99.90;;;;;;5065156;28;19921;-90
2023/01/29 05:52:26;;;;;;;;;;;-2.60;99.90;;;;;;5064065;28;19921;-89
2023/01/29 05:54:53;;;;;;;;;;;-2.60;99.90;;;;;;5078945;22;20246;-68
2023/01/29 05:57:19;;;;;;;;;;;-2.60;99.90;;;;;;5059607;28;19948;-69
2023/01/29 05:59:46;;;;;;;;;;;-2.50;99.90;;;;;;5063891;28;19921;-69
2023/01/29 06:02:14;;;;;;;;;;;-2.50;99.90;;;;;;5064392;28;20183;-68
2023/01/29 06:04:41;;;;;;;;;;;-2.50;99.90;;;;;;5064552;28;20164;-69
2023/01/29 06:07:14;;;;;;;;;;;-2.40;99.90;;;;;;5061112;28;20258;-69
2023/01/29 06:09:41;;;;;;;;;;;-2.40;99.90;;;;;;5064681;28;19927;-69
2023/01/29 06:12:07;;;;;;;;;;;-2.40;99.90;;;;;;5064200;28;19928;-69
2023/01/29 06:14:34;;;;;;;;;;;-2.40;99.90;;;;;;5064202;28;19955;-68
2023/01/29 06:17:01;;;;;;;;;;;-2.40;99.90;;;;;;5063579;28;19948;-68
2023/01/29 06:19:29;;;;;;;;;;;-2.50;99.90;;;;;;5064035;28;19992;-69
2023/01/29 06:21:55;;;;;;;;;;;-2.50;99.90;;;;;;5064335;28;19986;-69
2023/01/29 06:24:22;;;;;;;;;;;-2.50;99.90;;;;;;5063981;28;19984;-69
2023/01/29 06:26:48;;;;;;;;;;;-2.40;99.90;;;;;;5063352;28;20271;-68
2023/01/29 06:29:15;;;;;;;;;;;-2.50;99.90;;;;;;5064009;28;19921;-69
2023/01/29 06:31:42;;;;;;;;;;;-2.50;99.90;;;;;;5063829;28;19962;-69
2023/01/29 06:34:08;;;;;;;;;;;-2.40;99.90;;;;;;5063889;28;19952;-68
2023/01/29 06:36:36;;;;;;;;;;;-2.40;99.90;;;;;;5063401;28;19927;-69
2023/01/29 06:39:03;;;;;;;;;;;-2.40;99.90;;;;;;5064249;28;19921;-68
2023/01/29 06:41:30;;;;;;;;;;;-2.40;99.90;;;;;;5063033;28;19921;-69
2023/01/29 06:43:57;;;;;;;;;;;-2.30;99.90;;;;;;5063718;28;19921;-69
2023/01/29 06:46:23;;;;;;;;;;;-2.30;99.90;;;;;;5063021;28;20004;-68
2023/01/29 06:48:50;;;;;;;;;;;-2.30;99.90;;;;;;5063996;28;19921;-69
2023/01/29 06:51:17;;;;;;;;;;;-2.20;99.90;;;;;;5053667;28;19921;-69
2023/01/29 06:53:45;;;;;;;;;;;-2.30;99.90;;;;;;5043951;28;20047;-67
2023/01/29 06:56:11;;;;;;;;;;;-2.30;99.90;;;;;;5042846;28;19985;-68
2023/01/29 06:58:39;;;;;;;;;;;-2.40;99.90;;;;;;5059008;28;19988;-69
2023/01/29 07:01:05;;;;;;;;;;;-2.40;99.90;;;;;;5063370;28;19979;-68
2023/01/29 07:03:32;;;;;;;;;;;-2.40;99.90;;;;;;5063357;28;20204;-69
2023/01/29 07:06:01;;;;;;;;;;;-2.40;99.90;;;;;;5060572;28;19927;-69
2023/01/29 07:08:28;;;;;;;;;;;-2.30;99.90;;;;;;5063605;28;19956;-69
2023/01/29 07:10:59;;;;;;;;;;;-2.40;99.90;;;;;;5063194;28;19956;-69
2023/01/29 07:13:26;;;;;;;;;;;-2.40;99.90;;;;;;5057276;28;19921;-67
2023/01/29 07:15:53;;;;;;;;;;;-2.40;99.90;;;;;;5042986;28;19984;-68
2023/01/29 07:18:19;;;;;;;;;;;-2.40;99.90;;;;;;5043369;28;19921;-69
2023/01/29 07:20:46;;;;;;;;;;;-2.50;99.90;;;;;;5043430;28;19956;-68
2023/01/29 07:23:13;;;;;;;;;;;-2.50;99.90;;;;;;5055081;28;19921;-68
2023/01/29 07:25:40;;;;;;;;;;;-2.50;99.90;;;;;;5062970;28;20239;-69
2023/01/29 07:28:08;;;;;;;;;;;-2.50;99.90;;;;;;5062731;28;19943;-69
2023/01/29 07:30:35;;;;;;;;;;;-2.40;99.90;;;;;;5062996;28;19988;-68
2023/01/29 07:33:03;;;;;;;;;;;-2.60;99.90;;;;;;5063422;28;19948;-68
2023/01/29 07:35:29;;;;;;;;;;;-2.60;99.90;;;;;;5063233;28;19920;-69
2023/01/29 07:37:56;;;;;;;;;;;-2.60;99.90;;;;;;5062654;28;19948;-69
2023/01/29 07:40:23;;;;;;;;;;;-2.60;99.90;;;;;;5062770;28;19963;-68
2023/01/29 07:42:50;;;;;;;;;;;-2.60;99.90;;;;;;5061118;28;19943;-68
2023/01/29 07:45:18;;;;;;;;;;;-2.60;99.90;;;;;;5063079;28;19921;-66
2023/01/29 07:47:45;;;;;;;;;;;-2.50;99.90;;;;;;5062508;28;19927;-67
2023/01/29 07:50:11;;;;;;;;;;;-2.50;99.90;;;;;;5063364;28;19987;-67
2023/01/29 07:52:38;;;;;;;;;;;-2.40;99.90;;;;;;5063189;28;19967;-66
2023/01/29 07:55:05;;;;;;;;;;;-2.40;99.90;;;;;;5062804;28;19921;-66
2023/01/29 07:57:33;;;;;;;;;;;-2.30;99.90;;;;;;5060857;28;19988;-67
2023/01/29 07:59:59;;;;;;;;;;;-2.30;99.90;;;;;;5064215;28;19921;-66
2023/01/29 08:02:27;;;;;;;;;;;-2.30;99.90;;;;;;5063446;28;20228;-67
2023/01/29 08:04:54;;;;;;;;;;;-2.30;99.90;;;;;;5062721;28;20164;-67
2023/01/29 08:07:21;;;;;;;;;;;-1.90;99.90;;;;;;5059927;28;19928;-67
2023/01/29 08:09:47;;;;;;;;;;;-2.20;99.90;;;;;;5063005;28;19983;-67
2023/01/29 08:12:14;;;;;;;;;;;-2.10;99.90;;;;;;5062745;28;19927;-67
2023/01/29 08:14:41;;;;;;;;;;;-0.70;99.90;;;;;;5062917;28;19971;-66
2023/01/29 08:17:07;;;;;;;;;;;-2.00;99.90;;;;;;5062381;28;20175;-66
2023/01/29 08:19:35;;;;;;;;;;;-2.00;99.90;;;;;;5062930;28;19920;-67
2023/01/29 08:22:03;;;;;;;;;;;-2.00;99.90;;;;;;5063405;28;19921;-66
2023/01/29 08:24:29;;;;;;;;;;;-2.00;99.90;;;;;;5066695;28;19928;-66
2023/01/29 08:26:56;;;;;;;;;;;-2.00;99.90;;;;;;5066037;28;20000;-69
2023/01/29 08:29:23;;;;;;;;;;;-2.00;99.90;;;;;;5066275;28;20224;-69
2023/01/29 08:31:49;;;;;;;;;;;-1.90;99.90;;;;;;5054061;28;19921;-69
2023/01/29 08:34:16;;;;;;;;;;;-2.00;99.90;;;;;;5046453;28;19959;-68
2023/01/29 08:36:44;;;;;;;;;;;-2.10;99.90;;;;;;5053157;28;19988;-67
2023/01/29 08:39:10;;;;;;;;;;;-2.10;99.90;;;;;;5065979;28;20295;-68
2023/01/29 08:41:37;;;;;;;;;;;-2.10;99.90;;;;;;5065429;28;19987;-68
2023/01/29 08:44:04;;;;;;;;;;;-2.00;99.90;;;;;;5066198;28;19992;-69
2023/01/29 08:46:31;;;;;;;;;;;-2.00;99.90;;;;;;5065115;28;19920;-68
2023/01/29 08:48:57;;;;;;;;;;;-1.90;99.90;;;;;;5066165;28;19924;-67
2023/01/29 08:51:24;;;;;;;;;;;-1.90;99.90;;;;;;5066134;28;19991;-69
2023/01/29 08:53:53;;;;;;;;;;;-1.90;99.90;;;;;;5065862;28;19952;-68
2023/01/29 08:56:19;;;;;;;;;;;-1.90;99.90;;;;;;5064894;28;19921;-68
2023/01/29 08:58:46;;;;;;;;;;;-1.80;99.90;;;;;;5066156;28;19927;-68
2023/01/29 09:01:13;;;;;;;;;;;-1.90;99.90;;;;;;5066089;28;20175;-68
2023/01/29 09:03:42;;;;;;;;;;;-1.90;99.90;;;;;;5065562;28;19921;-68
2023/01/29 09:06:09;;;;;;;;;;;-1.90;99.90;;;;;;5064575;28;19963;-68
2023/01/29 09:08:36;;;;;;;;;;;-1.90;99.90;;;;;;5065984;28;19948;-69
2023/01/29 09:11:04;;;;;;;;;;;-2.00;99.90;;;;;;5065817;28;19992;-70
2023/01/29 09:13:33;;;;;;;;;;;-2.00;99.90;;;;;;5062810;28;19992;-68
2023/01/29 09:16:00;;;;;;;;;;;-1.90;99.90;;;;;;5065303;28;19988;-68
2023/01/29 09:18:27;;;;;;;;;;;-2.00;99.90;;;;;;5065389;28;19921;-68
2023/01/29 09:20:54;;;;;;;;;;;-2.00;99.90;;;;;;5062299;28;19928;-68
2023/01/29 09:23:20;;;;;;;;;;;-2.00;99.90;;;;;;5045485;28;19921;-68
2023/01/29 09:25:47;;;;;;;;;;;-2.00;99.90;;;;;;5045134;28;19995;-68
2023/01/29 09:28:16;;;;;;;;;;;-1.90;99.90;;;;;;5044804;28;19949;-71
2023/01/29 09:30:43;;;;;;;;;;;-1.90;99.90;;;;;;5045492;28;19921;-67
2023/01/29 09:33:09;;;;;;;;;;;-1.80;99.90;;;;;;5045320;28;19944;-68
2023/01/29 09:35:36;;;;;;;;;;;-1.80;99.90;;;;;;5057001;28;19992;-67
2023/01/29 09:38:03;;;;;;;;;;;-1.80;99.90;;;;;;5062012;28;19921;-67
2023/01/29 09:40:32;;;;;;;;;;;-1.70;99.90;;;;;;5062388;28;19980;-68
2023/01/29 09:43:01;;;;;;;;;;;-1.70;99.90;;;;;;5056400;28;20256;-67
2023/01/29 09:45:30;;;;;;;;;;;-1.70;99.90;;;;;;5044717;28;19966;-67
2023/01/29 09:47:58;;;;;;;;;;;-1.60;99.90;;;;;;5044966;28;19921;-68
2023/01/29 09:50:28;;;;;;;;;;;-1.60;99.90;;;;;;5044860;28;19921;-68
2023/01/29 09:52:56;;;;;;;;;;;-1.60;99.90;;;;;;5044793;28;19927;-67
2023/01/29 09:55:26;;;;;;;;;;;-1.50;99.90;;;;;;5044777;28;19952;-68
2023/01/29 09:57:54;;;;;;;;;;;-1.50;99.90;;;;;;5043972;28;19921;-70
2023/01/29 10:00:24;;;;;;;;;;;-1.40;99.90;;;;;;5056068;28;19935;-67
2023/01/29 10:03:02;;;;;;;;;;;-1.30;99.90;;;;;;5064235;28;19921;-69
2023/01/29 10:05:36;;;;;;;;;;;-1.30;99.90;;;;;;5063922;28;19948;-69
2023/01/29 10:08:15;;;;;;;;;;;-1.40;99.90;;;;;;5062903;28;19948;-67
2023/01/29 10:10:48;;;;;;;;;;;-1.40;99.90;;;;;;5053184;28;19984;-69
2023/01/29 10:13:18;;;;;;;;;;;-1.40;99.90;;;;;;5044313;28;19921;-69
2023/01/29 10:16:04;;;;;;;;;;;-1.40;99.90;;;;;;5040543;28;19980;-68
2023/01/29 10:18:43;;;;;;;;;;;-1.40;99.90;;;;;;5035729;28;19988;-69
2023/01/29 10:21:19;;;;;;;;;;;-1.40;99.90;;;;;;5064202;28;19929;-69
2023/01/29 10:23:46;;;;;;;;;;;-1.30;99.90;;;;;;5064207;28;20208;-69
2023/01/29 10:26:13;;;;;;;;;;;-1.30;99.90;;;;;;5063316;28;20216;-69
2023/01/29 10:28:44;;;;;;;;;;;-1.20;99.90;;;;;;5064033;28;19927;-69
2023/01/29 10:31:15;;;;;;;;;;;-1.10;99.90;;;;;;5057349;28;19921;-69
2023/01/29 10:33:47;;;;;;;;;;;-1.10;99.90;;;;;;5063445;28;20313;-69
2023/01/29 10:36:16;;;;;;;;;;;-1.10;99.90;;;;;;5062781;28;19921;-69
2023/01/29 10:38:44;;;;;;;;;;;-1.10;99.90;;;;;;5064131;28;19921;-69
2023/01/29 10:41:28;;;;;;;;;;;-1.10;99.90;;;;;;5063476;28;20022;-69
2023/01/29 10:44:01;;;;;;;;;;;-1.20;99.90;;;;;;5063792;28;19991;-69
2023/01/29 10:46:34;;;;;;;;;;;-1.20;99.90;;;;;;5062945;28;19921;-69
2023/01/29 10:49:10;;;;;;;;;;;-1.00;99.90;;;;;;5063002;28;20224;-69
2023/01/29 10:51:48;;;;;;;;;;;-1.10;99.90;;;;;;5063722;28;19959;-69
2023/01/29 10:54:23;;;;;;;;;;;-1.00;99.90;;;;;;5063556;28;19927;-69
2023/01/29 10:56:56;;;;;;;;;;;-0.90;99.90;;;;;;5062674;28;19921;-69
2023/01/29 10:59:28;;;;;;;;;;;-0.70;99.90;;;;;;5063204;28;19951;-68
2023/01/29 11:01:57;;;;;;;;;;;-0.70;99.90;;;;;;5063281;28;19927;-69
2023/01/29 11:04:26;;;;;;;;;;;-0.60;99.90;;;;;;5062191;28;20172;-69
2023/01/29 11:06:52;;;;;;;;;;;-0.60;99.90;;;;;;5062031;28;19920;-69
2023/01/29 11:09:27;;;;;;;;;;;-0.50;99.90;;;;;;5063438;28;20224;-69
2023/01/29 11:11:55;;;;;;;;;;;-0.50;99.90;;;;;;5050522;28;19920;-69
2023/01/29 11:14:24;;;;;;;;;;;-0.60;99.90;;;;;;5063616;28;19927;-69
2023/01/29 11:16:51;;;;;;;;;;;-0.60;99.90;;;;;;5060000;28;19920;-69
2023/01/29 11:19:18;;;;;;;;;;;-0.60;99.90;;;;;;5059497;28;19952;-69
2023/01/29 11:21:55;;;;;;;;;;;-0.70;99.90;;;;;;5060977;28;20220;-69
2023/01/29 11:24:22;;;;;;;;;;;-0.70;99.90;;;;;;5063522;28;19927;-69
2023/01/29 11:26:49;;;;;;;;;;;-0.70;99.90;;;;;;5062636;28;20135;-69
2023/01/29 11:29:37;;;;;;;;;;;-0.60;99.90;;;;;;5062702;28;19921;-69
2023/01/29 11:32:05;;;;;;;;;;;-0.60;99.90;;;;;;5044247;28;19927;-69
2023/01/29 11:34:32;;;;;;;;;;;-0.60;99.90;;;;;;5043707;28;19948;-69
2023/01/29 11:37:00;;;;;;;;;;;-0.50;99.90;;;;;;5050797;28;19988;-70
2023/01/29 11:39:28;;;;;;;;;;;-0.50;99.90;;;;;;5062816;28;20000;-69
2023/01/29 11:41:56;;;;;;;;;;;-0.40;99.90;;;;;;5063464;28;19921;-69
2023/01/29 11:44:27;;;;;;;;;;;-0.40;99.90;;;;;;5063345;28;19920;-69
2023/01/29 11:46:54;;;;;;;;;;;-0.30;99.90;;;;;;5062470;28;19925;-69
2023/01/29 11:49:23;;;;;;;;;;;-0.40;99.90;;;;;;5062420;28;19921;-69
2023/01/29 11:51:51;;;;;;;;;;;-0.40;99.90;;;;;;5063089;28;19963;-69
2023/01/29 11:54:20;;;;;;;;;;;-0.30;99.90;;;;;;5060445;28;19984;-68
2023/01/29 11:56:47;;;;;;;;;;;-0.30;99.90;;;;;;5062833;28;19921;-69
2023/01/29 11:59:24;;;;;;;;;;;-0.30;99.90;;;;;;5061118;28;20544;-68
2023/01/29 12:01:50;;;;;;;;;;;-0.30;99.90;;;;;;5047025;28;19927;-68
2023/01/29 12:04:19;;;;;;;;;;;-0.20;99.90;;;;;;5064537;28;19952;-69
2023/01/29 12:06:49;;;;;;;;;;;-0.20;99.90;;;;;;5059438;28;20356;-69
2023/01/29 12:09:17;;;;;;;;;;;-0.10;99.90;;;;;;5061011;28;19963;-69
2023/01/29 12:11:45;;;;;;;;;;;-0.10;99.90;;;;;;5056537;28;20174;-68
2023/01/29 12:14:23;;;;;;;;;;;-0.10;99.90;;;;;;5059112;28;20178;-68
2023/01/29 12:16:52;;;;;;;;;;;0.00;99.90;;;;;;5043326;28;20120;-68
2023/01/29 12:19:24;;;;;;;;;;;-0.10;99.90;;;;;;5047221;28;19984;-68
2023/01/29 12:21:54;;;;;;;;;;;-0.10;99.90;;;;;;5046886;28;20120;-68
2023/01/29 12:24:29;;;;;;;;;;;-0.20;99.90;;;;;;5046712;28;20009;-67
2023/01/29 12:27:00;;;;;;;;;;;-0.30;99.90;;;;;;5046424;28;19921;-68
2023/01/29 12:29:31;;;;;;;;;;;-0.30;99.90;;;;;;5047238;28;19927;-68
2023/01/29 12:32:01;;;;;;;;;;;-0.40;99.90;;;;;;5046845;28;19925;-68
2023/01/29 12:34:33;;;;;;;;;;;-0.40;99.90;;;;;;5063415;28;19920;-68
2023/01/29 12:37:03;;;;;;;;;;;-0.20;99.90;;;;;;5057451;28;19928;-68
2023/01/29 12:39:31;;;;;;;;;;;-0.20;99.90;;;;;;5046494;28;19984;-68
2023/01/29 12:42:02;;;;;;;;;;;-0.20;99.90;;;;;;5062030;28;20003;-68
2023/01/29 12:44:32;;;;;;;;;;;-0.10;99.90;;;;;;5066387;28;19928;-68
2023/01/29 12:47:00;;;;;;;;;;;0.00;99.90;;;;;;5065061;28;19988;-69
2023/01/29 12:49:29;;;;;;;;;;;0.00;99.90;;;;;;5066427;28;20207;-68
2023/01/29 12:51:58;;;;;;;;;;;-0.10;99.90;;;;;;5065540;28;19988;-68
2023/01/29 12:54:31;;;;;;;;;;;-0.10;99.90;;;;;;5063835;28;19921;-69
2023/01/29 12:57:00;;;;;;;;;;;-0.10;99.90;;;;;;5064101;28;19921;-68
2023/01/29 12:59:29;;;;;;;;;;;0.00;99.90;;;;;;5066006;28;19921;-68
2023/01/29 13:01:57;;;;;;;;;;;0.00;99.90;;;;;;5064974;28;19920;-68
2023/01/29 13:04:30;;;;;;;;;;;0.00;99.90;;;;;;5066023;28;19928;-71
2023/01/29 13:07:01;;;;;;;;;;;0.10;99.90;;;;;;5058478;28;19921;-68
2023/01/29 13:09:30;;;;;;;;;;;0.20;99.90;;;;;;5049682;28;19921;-69
2023/01/29 13:11:59;;;;;;;;;;;0.10;99.90;;;;;;5065501;28;19923;-68
2023/01/29 13:14:41;;;;;;;;;;;0.20;99.90;;;;;;5065526;28;19921;-68
2023/01/29 13:17:10;;;;;;;;;;;0.20;99.90;;;;;;5062688;28;19991;-68
2023/01/29 13:19:40;;;;;;;;;;;0.20;99.90;;;;;;5065791;28;19928;-68
2023/01/29 13:22:11;;;;;;;;;;;0.10;99.90;;;;;;5065548;28;19927;-68
2023/01/29 13:24:39;;;;;;;;;;;0.20;99.90;;;;;;5066027;28;19927;-68
2023/01/29 13:27:06;;;;;;;;;;;0.20;99.90;;;;;;5065927;28;20101;-69
2023/01/29 13:29:34;;;;;;;;;;;0.00;99.90;;;;;;5068492;28;19928;-69
2023/01/29 13:32:01;;;;;;;;;;;0.10;99.90;;;;;;5066722;28;19927;-72
2023/01/29 13:34:30;;;;;;;;;;;0.10;99.90;;;;;;5065103;28;19920;-69
2023/01/29 13:36:57;;;;;;;;;;;0.20;99.90;;;;;;5063980;28;19943;-69
2023/01/29 13:39:26;;;;;;;;;;;0.20;99.90;;;;;;5065353;28;19975;-69
2023/01/29 13:41:54;;;;;;;;;;;0.20;99.90;;;;;;5053036;28;19947;-68
2023/01/29 13:44:22;;;;;;;;;;;0.10;99.90;;;;;;5054426;28;19987;-68
2023/01/29 13:46:54;;;;;;;;;;;0.10;99.90;;;;;;5061885;28;19987;-68
2023/01/29 13:49:24;;;;;;;;;;;0.10;99.90;;;;;;5065007;28;19988;-68
2023/01/29 13:51:51;;;;;;;;;;;0.10;99.90;;;;;;5065202;28;19992;-68
2023/01/29 13:54:20;;;;;;;;;;;0.10;99.90;;;;;;5064733;28;19993;-69
2023/01/29 13:56:58;;;;;;;;;;;0.10;99.90;;;;;;5062274;28;19976;-69
2023/01/29 13:59:44;;;;;;;;;;;0.00;99.90;;;;;;5063899;28;19958;-69
2023/01/29 14:02:21;;;;;;;;;;;-0.10;99.90;;;;;;5064187;28;19927;-68
2023/01/29 14:04:48;;;;;;;;;;;-0.10;99.90;;;;;;5064567;28;19963;-68
2023/01/29 14:07:33;;;;;;;;;;;-0.10;99.90;;;;;;5055948;28;19956;-67
2023/01/29 14:10:12;;;;;;;;;;;-0.10;99.90;;;;;;5044741;28;19921;-67
2023/01/29 14:12:43;;;;;;;;;;;0.00;99.90;;;;;;5044567;28;19982;-68
2023/01/29 14:15:20;;;;;;;;;;;0.00;99.90;;;;;;5060138;28;19987;-67
2023/01/29 14:18:05;;;;;;;;;;;0.00;99.90;;;;;;5063773;28;19921;-67
2023/01/29 14:20:35;;;;;;;;;;;0.10;99.90;;;;;;5049458;28;20205;-67
2023/01/29 14:23:03;;;;;;;;;;;0.10;99.90;;;;;;5044368;28;19928;-67
2023/01/29 14:25:31;;;;;;;;;;;0.10;99.90;;;;;;5055190;28;19991;-67
2023/01/29 14:27:58;;;;;;;;;;;0.20;99.90;;;;;;5057620;28;20201;-68
2023/01/29 14:30:26;;;;;;;;;;;0.20;99.90;;;;;;5044462;28;19956;-67
2023/01/29 14:32:54;;;;;;;;;;;0.20;99.90;;;;;;5040697;28;19967;-67
2023/01/29 14:35:22;;;;;;;;;;;0.30;99.90;;;;;;5051924;28;19929;-68
2023/01/29 14:37:52;;;;;;;;;;;0.40;99.90;;;;;;5063322;28;20154;-68
2023/01/29 14:40:20;;;;;;;;;;;0.50;99.90;;;;;;5064249;28;19983;-68
2023/01/29 14:42:58;;;;;;;;;;;0.50;99.90;;;;;;5062654;28;19956;-68
2023/01/29 14:45:26;;;;;;;;;;;0.60;99.90;;;;;;5063689;28;19921;-68
2023/01/29 14:48:08;;;;;;;;;;;0.60;99.90;;;;;;5063329;28;20170;-68
2023/01/29 14:50:42;;;;;;;;;;;0.60;99.90;;;;;;5063623;28;19984;-67
2023/01/29 14:53:12;;;;;;;;;;;0.60;99.90;;;;;;5063898;28;20003;-68
2023/01/29 14:55:41;;;;;;;;;;;0.60;99.90;;;;;;5062409;28;19921;-68
2023/01/29 14:58:12;;;;;;;;;;;0.70;99.90;;;;;;5063465;28;19927;-68